createdAt,value
2022-12-11T00:00:41.480Z,14.87
2022-12-11T00:03:15.357Z,13.13
2022-12-11T00:05:43.349Z,14.80
2022-12-11T00:08:11.309Z,13.33
2022-12-11T00:10:39.182Z,13.87
2022-12-11T00:13:07.013Z,13.70
2022-12-11T00:15:35.097Z,15.07
2022-12-11T00:18:05.317Z,13.47
2022-12-11T00:20:33.011Z,17.10
2022-12-11T00:23:00.774Z,16.53
2022-12-11T00:25:28.611Z,16.80
2022-12-11T00:27:56.345Z,13.97
2022-12-11T00:30:24.062Z,12.77
2022-12-11T00:32:53.216Z,14.57
2022-12-11T00:35:22.372Z,14.93
2022-12-11T00:37:50.094Z,14.93
2022-12-11T00:40:18.463Z,16.00
2022-12-11T00:42:46.189Z,13.33
2022-12-11T00:45:13.911Z,15.93
2022-12-11T00:47:41.662Z,15.07
2022-12-11T00:50:09.917Z,13.60
2022-12-11T00:52:39.025Z,14.27
2022-12-11T00:55:07.700Z,13.43
2022-12-11T00:57:35.495Z,14.67
2022-12-11T01:00:03.398Z,14.80
2022-12-11T01:02:31.157Z,14.47
2022-12-11T01:04:58.933Z,19.50
2022-12-11T01:07:26.744Z,13.97
2022-12-11T01:10:13.231Z,16.07
2022-12-11T01:12:40.998Z,16.00
2022-12-11T01:15:09.567Z,16.30
2022-12-11T01:17:37.570Z,16.23
2022-12-11T01:20:05.899Z,15.63
2022-12-11T01:22:33.812Z,14.93
2022-12-11T01:25:04.933Z,16.17
2022-12-11T01:27:32.650Z,15.43
2022-12-11T01:30:00.395Z,16.40
2022-12-11T01:32:28.554Z,15.33
2022-12-11T01:34:56.697Z,14.10
2022-12-11T01:37:24.438Z,14.63
2022-12-11T01:39:52.418Z,15.47
2022-12-11T01:42:22.168Z,15.47
2022-12-11T01:45:27.513Z,16.63
2022-12-11T01:47:59.556Z,17.20
2022-12-11T01:50:27.607Z,14.10
2022-12-11T01:52:55.403Z,15.30
2022-12-11T01:55:23.516Z,14.47
2022-12-11T01:57:53.645Z,18.20
2022-12-11T02:00:22.425Z,15.60
2022-12-11T02:02:50.276Z,14.97
2022-12-11T02:05:17.989Z,16.23
2022-12-11T02:07:48.104Z,16.07
2022-12-11T02:10:16.266Z,15.20
2022-12-11T02:12:54.674Z,17.17
2022-12-11T02:15:27.685Z,14.07
2022-12-11T02:18:03.264Z,17.73
2022-12-11T02:20:35.381Z,14.63
2022-12-11T02:23:38.519Z,14.53
2022-12-11T02:26:14.731Z,17.00
2022-12-11T02:28:46.843Z,16.37
2022-12-11T02:31:18.193Z,17.13
2022-12-11T02:33:48.601Z,17.47
2022-12-11T02:36:18.237Z,14.33
2022-12-11T02:38:50.669Z,14.10
2022-12-11T02:41:19.900Z,14.13
2022-12-11T02:43:49.893Z,15.70
2022-12-11T02:46:19.195Z,14.27
2022-12-11T02:48:48.164Z,15.70
2022-12-11T02:51:17.386Z,15.07
2022-12-11T02:53:45.321Z,16.50
2022-12-11T02:56:15.531Z,14.43
2022-12-11T02:58:46.496Z,14.10
2022-12-11T03:01:15.736Z,14.10
2022-12-11T03:03:43.954Z,14.50
2022-12-11T03:06:15.292Z,14.53
2022-12-11T03:08:43.013Z,14.70
2022-12-11T03:11:11.690Z,14.73
2022-12-11T03:13:40.151Z,13.53
2022-12-11T03:16:13.410Z,12.53
2022-12-11T03:18:47.325Z,13.83
2022-12-11T03:21:18.223Z,12.47
2022-12-11T03:23:51.305Z,16.73
2022-12-11T03:26:20.206Z,15.07
2022-12-11T03:28:52.541Z,14.33
2022-12-11T03:31:23.581Z,13.23
2022-12-11T03:33:54.973Z,14.27
2022-12-11T03:36:27.173Z,14.27
2022-12-11T03:38:58.222Z,13.77
2022-12-11T03:41:27.441Z,13.60
2022-12-11T03:43:57.452Z,13.80
2022-12-11T03:46:29.265Z,15.00
2022-12-11T03:49:01.693Z,12.73
2022-12-11T03:51:30.446Z,15.70
2022-12-11T03:53:58.526Z,15.63
2022-12-11T03:56:28.277Z,15.00
2022-12-11T03:58:56.043Z,15.73
2022-12-11T04:01:23.899Z,16.80
2022-12-11T04:03:51.700Z,16.37
2022-12-11T04:06:20.875Z,14.80
2022-12-11T04:08:48.641Z,16.30
2022-12-11T04:11:33.802Z,13.60
2022-12-11T04:14:27.456Z,16.27
2022-12-11T04:16:55.577Z,14.10
2022-12-11T04:19:41.230Z,18.30
2022-12-11T04:22:28.481Z,16.77
2022-12-11T04:24:56.297Z,17.27
2022-12-11T04:27:41.833Z,15.67
2022-12-11T04:30:12.681Z,17.50
2022-12-11T04:32:40.488Z,17.80
2022-12-11T04:35:09.378Z,15.77
2022-12-11T04:37:39.619Z,16.10
2022-12-11T04:40:10.365Z,15.93
2022-12-11T04:42:38.307Z,16.40
2022-12-11T04:45:08.254Z,19.63
2022-12-11T04:47:36.837Z,17.03
2022-12-11T04:50:05.381Z,16.07
2022-12-11T04:52:33.274Z,19.87
2022-12-11T04:55:02.349Z,19.40
2022-12-11T04:57:30.148Z,17.33
2022-12-11T04:59:57.851Z,18.77
2022-12-11T05:02:25.667Z,17.70
2022-12-11T05:04:53.570Z,19.03
2022-12-11T05:07:21.371Z,19.10
2022-12-11T05:09:49.185Z,18.40
2022-12-11T05:12:18.288Z,17.50
2022-12-11T05:14:46.082Z,17.13
2022-12-11T05:17:14.002Z,18.97
2022-12-11T05:19:41.807Z,18.20
2022-12-11T05:22:09.539Z,19.00
2022-12-11T05:24:37.436Z,17.80
2022-12-11T05:27:05.378Z,20.70
2022-12-11T05:29:34.501Z,19.17
2022-12-11T05:32:02.325Z,17.23
2022-12-11T05:34:30.039Z,15.63
2022-12-11T05:36:57.793Z,17.30
2022-12-11T05:39:25.525Z,16.67
2022-12-11T05:41:53.230Z,16.07
2022-12-11T05:44:20.975Z,15.57
2022-12-11T05:46:50.424Z,15.30
2022-12-11T05:49:19.984Z,17.20
2022-12-11T05:51:48.355Z,14.10
2022-12-11T05:54:16.258Z,15.27
2022-12-11T05:56:43.946Z,15.33
2022-12-11T05:59:11.694Z,15.13
2022-12-11T06:01:41.082Z,12.87
2022-12-11T06:04:11.829Z,17.23
2022-12-11T06:06:40.787Z,15.57
2022-12-11T06:09:08.877Z,15.13
2022-12-11T06:11:37.330Z,14.80
2022-12-11T06:14:05.713Z,17.50
2022-12-11T06:16:34.200Z,18.03
2022-12-11T06:19:01.963Z,15.97
2022-12-11T06:21:33.362Z,13.93
2022-12-11T06:24:03.227Z,16.23
2022-12-11T06:26:32.017Z,17.27
2022-12-11T06:28:59.782Z,14.00
2022-12-11T06:31:28.006Z,17.20
2022-12-11T06:33:56.049Z,15.93
2022-12-11T06:36:24.667Z,15.00
2022-12-11T06:38:54.009Z,18.37
2022-12-11T06:41:21.633Z,17.70
2022-12-11T06:43:50.741Z,22.57
2022-12-11T06:46:19.688Z,26.50
2022-12-11T06:48:47.781Z,21.73
2022-12-11T06:51:16.717Z,20.20
2022-12-11T06:53:44.489Z,17.77
2022-12-11T06:56:16.117Z,17.33
2022-12-11T06:58:44.274Z,16.80
2022-12-11T07:01:17.033Z,15.13
2022-12-11T07:03:44.746Z,18.27
2022-12-11T07:06:12.857Z,18.47
2022-12-11T07:08:40.573Z,17.23
2022-12-11T07:11:10.053Z,20.17
2022-12-11T07:13:39.459Z,17.60
2022-12-11T07:16:10.833Z,16.50
2022-12-11T07:18:39.025Z,17.20
2022-12-11T07:21:07.439Z,17.67
2022-12-11T07:23:35.992Z,19.40
2022-12-11T07:26:06.033Z,19.00
2022-12-11T07:28:34.415Z,19.13
2022-12-11T07:31:07.402Z,18.33
2022-12-11T07:33:35.021Z,17.30
2022-12-11T07:36:04.311Z,18.87
2022-12-11T07:38:31.910Z,15.80
2022-12-11T07:41:01.927Z,21.57
2022-12-11T07:43:29.618Z,20.93
2022-12-11T07:46:01.956Z,20.30
2022-12-11T07:48:31.259Z,18.53
2022-12-11T07:51:09.684Z,22.17
2022-12-11T07:53:37.446Z,17.73
2022-12-11T07:56:05.450Z,18.73
2022-12-11T07:58:33.018Z,21.37
2022-12-11T08:01:00.742Z,19.53
2022-12-11T08:03:28.592Z,18.80
2022-12-11T08:05:57.557Z,16.07
2022-12-11T08:08:25.879Z,18.63
2022-12-11T08:10:53.522Z,21.58
2022-12-11T08:13:21.127Z,20.77
2022-12-11T08:15:48.929Z,23.13
2022-12-11T08:18:16.592Z,16.87
2022-12-11T08:20:44.233Z,18.37
2022-12-11T08:23:13.238Z,16.87
2022-12-11T08:25:41.149Z,16.83
2022-12-11T08:28:08.764Z,20.30
2022-12-11T08:30:36.382Z,21.13
2022-12-11T08:33:04.226Z,25.27
2022-12-11T08:35:31.777Z,25.10
2022-12-11T08:37:59.497Z,17.00
2022-12-11T08:40:28.443Z,15.97
2022-12-11T08:42:56.128Z,17.03
2022-12-11T08:45:24.056Z,17.33
2022-12-11T08:47:51.763Z,18.30
2022-12-11T08:50:19.618Z,17.67
2022-12-11T08:52:47.692Z,18.63
2022-12-11T08:55:15.462Z,17.37
2022-12-11T08:57:44.596Z,16.77
2022-12-11T09:00:14.493Z,15.20
2022-12-11T09:02:42.304Z,14.53
2022-12-11T09:05:10.669Z,17.07
2022-12-11T09:07:39.258Z,15.70
2022-12-11T09:10:08.221Z,15.40
2022-12-11T09:12:36.119Z,18.37
2022-12-11T09:15:05.918Z,17.13
2022-12-11T09:17:36.275Z,15.50
2022-12-11T09:20:06.496Z,15.17
2022-12-11T09:22:34.723Z,16.67
2022-12-11T09:25:02.469Z,16.77
2022-12-11T09:27:30.325Z,16.77
2022-12-11T09:29:58.094Z,17.23
2022-12-11T09:32:27.514Z,15.37
2022-12-11T09:34:55.256Z,16.60
2022-12-11T09:37:23.202Z,16.77
2022-12-11T09:39:50.873Z,15.10
2022-12-11T09:42:22.814Z,17.63
2022-12-11T09:44:53.194Z,15.93
2022-12-11T09:47:24.437Z,15.63
2022-12-11T09:49:59.655Z,14.77
2022-12-11T09:52:33.573Z,17.30
2022-12-11T09:55:02.600Z,16.70
2022-12-11T09:57:39.687Z,18.83
2022-12-11T10:00:24.309Z,17.90
2022-12-11T10:03:08.817Z,17.37
2022-12-11T10:05:43.831Z,18.20
2022-12-11T10:08:18.177Z,16.47
2022-12-11T10:10:50.692Z,17.50
2022-12-11T10:13:25.050Z,17.37
2022-12-11T10:15:56.013Z,19.00
2022-12-11T10:18:25.139Z,17.87
2022-12-11T10:20:55.044Z,18.47
2022-12-11T10:23:25.453Z,16.00
2022-12-11T10:25:55.897Z,27.43
2022-12-11T10:28:23.719Z,18.80
2022-12-11T10:30:56.597Z,17.47
2022-12-11T10:33:28.543Z,18.27
2022-12-11T10:35:58.613Z,16.00
2022-12-11T10:38:29.593Z,16.43
2022-12-11T10:40:59.118Z,14.20
2022-12-11T10:43:35.308Z,13.10
2022-12-11T10:46:03.087Z,11.80
2022-12-11T10:48:30.908Z,11.73
2022-12-11T10:51:02.546Z,10.47
2022-12-11T10:53:30.529Z,10.67
2022-12-11T10:55:59.020Z,10.47
2022-12-11T10:58:28.493Z,10.27
2022-12-11T11:01:05.098Z,9.20
2022-12-11T11:03:33.778Z,8.27
2022-12-11T11:06:08.176Z,9.67
2022-12-11T11:08:41.520Z,13.40
2022-12-11T11:11:25.517Z,12.93
2022-12-11T11:13:53.333Z,11.80
2022-12-11T11:16:22.266Z,10.97
2022-12-11T11:18:55.285Z,9.00
2022-12-11T11:21:26.409Z,8.30
2022-12-11T11:23:55.294Z,7.33
2022-12-11T11:26:30.773Z,6.70
2022-12-11T11:29:25.837Z,6.97
2022-12-11T11:31:53.412Z,7.43
2022-12-11T11:34:22.261Z,8.10
2022-12-11T11:36:59.705Z,7.10
2022-12-11T11:39:29.366Z,6.77
2022-12-11T11:42:01.845Z,8.20
2022-12-11T11:44:33.672Z,6.90
2022-12-11T11:47:04.480Z,7.87
2022-12-11T11:49:45.975Z,7.70
2022-12-11T11:52:20.273Z,7.27
2022-12-11T11:54:52.380Z,7.27
2022-12-11T11:57:26.491Z,6.77
2022-12-11T11:59:56.620Z,7.43
2022-12-11T12:02:24.247Z,6.73
2022-12-11T12:04:53.151Z,7.33
2022-12-11T12:07:34.163Z,6.80
2022-12-11T12:10:08.092Z,7.23
2022-12-11T12:12:40.085Z,6.83
2022-12-11T12:15:19.150Z,5.80
2022-12-11T12:17:55.794Z,6.10
2022-12-11T12:20:38.293Z,6.90
2022-12-11T12:23:22.747Z,5.50
2022-12-11T12:25:53.991Z,5.83
2022-12-11T12:28:30.889Z,6.47
2022-12-11T12:31:09.126Z,6.27
2022-12-11T12:33:48.344Z,5.37
2022-12-11T12:36:20.248Z,4.67
2022-12-11T12:38:54.898Z,5.37
2022-12-11T12:41:26.260Z,6.43
2022-12-11T12:44:14.039Z,5.70
2022-12-11T12:46:50.549Z,6.50
2022-12-11T12:49:29.387Z,5.87
2022-12-11T12:51:58.262Z,7.13
2022-12-11T12:54:28.879Z,7.17
2022-12-11T12:56:56.945Z,7.90
2022-12-11T12:59:27.013Z,9.23
2022-12-11T13:01:57.122Z,9.40
2022-12-11T13:07:29.647Z,6.97
2022-12-11T13:10:02.829Z,8.50
2022-12-11T13:12:41.780Z,8.23
2022-12-11T13:15:25.270Z,8.83
2022-12-11T13:17:52.857Z,8.43
2022-12-11T13:20:22.941Z,8.50
2022-12-11T13:23:21.250Z,7.93
2022-12-11T13:25:53.585Z,7.47
2022-12-11T13:28:24.444Z,7.87
2022-12-11T13:31:00.160Z,8.17
2022-12-11T13:33:28.107Z,8.43
2022-12-11T13:36:31.146Z,8.70
2022-12-11T13:39:02.191Z,7.77
2022-12-11T13:41:31.690Z,7.87
2022-12-11T13:43:59.661Z,7.73
2022-12-11T13:46:29.611Z,8.03
2022-12-11T13:49:00.848Z,8.23
2022-12-11T13:51:30.625Z,7.00
2022-12-11T13:54:17.006Z,8.23
2022-12-11T13:57:03.503Z,6.43
2022-12-11T13:59:34.903Z,6.83
2022-12-11T14:02:06.517Z,7.13
2022-12-11T14:04:35.560Z,6.80
2022-12-11T14:07:03.817Z,7.30
2022-12-11T14:09:31.457Z,7.30
2022-12-11T14:12:00.438Z,7.73
2022-12-11T14:14:41.534Z,7.87
2022-12-11T14:17:13.901Z,8.23
2022-12-11T14:19:46.221Z,7.90
2022-12-11T14:22:19.557Z,7.57
2022-12-11T14:24:51.230Z,8.03
2022-12-11T14:27:21.239Z,8.17
2022-12-11T14:29:48.910Z,7.50
2022-12-11T14:32:20.398Z,7.20
2022-12-11T14:34:49.152Z,7.93
2022-12-11T14:37:18.615Z,8.00
2022-12-11T14:39:49.217Z,7.07
2022-12-11T14:42:20.790Z,7.63
2022-12-11T14:44:52.215Z,8.33
2022-12-11T14:47:21.392Z,8.63
2022-12-11T14:49:51.847Z,9.37
2022-12-11T14:52:21.226Z,7.83
2022-12-11T14:54:52.687Z,8.67
2022-12-11T14:57:24.182Z,9.33
2022-12-11T14:59:53.002Z,8.23
2022-12-11T15:02:32.409Z,9.43
2022-12-11T15:05:13.053Z,9.47
2022-12-11T15:07:41.330Z,9.57
2022-12-11T15:10:22.903Z,9.40
2022-12-11T15:12:54.424Z,9.47
2022-12-11T15:15:22.228Z,10.10
2022-12-11T15:17:52.827Z,8.57
2022-12-11T15:20:23.882Z,9.30
2022-12-11T15:22:51.537Z,8.13
2022-12-11T15:25:20.735Z,6.03
2022-12-11T15:27:54.384Z,6.30
2022-12-11T15:30:28.309Z,7.93
2022-12-11T15:33:24.034Z,6.90
2022-12-11T15:35:57.376Z,6.13
2022-12-11T15:38:36.748Z,7.20
2022-12-11T15:41:05.192Z,7.17
2022-12-11T15:43:37.713Z,6.83
2022-12-11T15:46:06.496Z,10.20
2022-12-11T15:48:34.228Z,9.50
2022-12-11T15:51:01.831Z,9.33
2022-12-11T15:53:29.417Z,10.53
2022-12-11T15:55:58.063Z,11.03
2022-12-11T15:58:27.249Z,8.93
2022-12-11T16:00:57.452Z,7.27
2022-12-11T16:03:25.423Z,7.27
2022-12-11T16:05:53.662Z,8.20
2022-12-11T16:08:23.492Z,8.03
2022-12-11T16:10:53.422Z,9.30
2022-12-11T16:13:21.079Z,7.37
2022-12-11T16:15:49.684Z,7.17
2022-12-11T16:18:21.584Z,7.83
2022-12-11T16:20:49.810Z,7.40
2022-12-11T16:23:17.404Z,8.53
2022-12-11T16:25:45.976Z,12.73
2022-12-11T16:28:15.064Z,8.20
2022-12-11T16:30:43.513Z,7.43
2022-12-11T16:33:13.425Z,7.53
2022-12-11T16:35:42.774Z,9.30
2022-12-11T16:38:11.034Z,9.93
2022-12-11T16:40:38.773Z,9.90
2022-12-11T16:43:06.934Z,8.87
2022-12-11T16:45:34.822Z,8.43
2022-12-11T16:48:03.998Z,8.23
2022-12-11T16:50:32.190Z,9.23
2022-12-11T16:53:01.107Z,7.20
2022-12-11T16:55:28.736Z,7.70
2022-12-11T16:57:56.313Z,6.57
2022-12-11T17:00:23.984Z,7.97
2022-12-11T17:02:51.654Z,7.60
2022-12-11T17:05:19.480Z,7.33
2022-12-11T17:07:47.231Z,6.70
2022-12-11T17:10:16.134Z,6.20
2022-12-11T17:12:43.713Z,6.50
2022-12-11T17:15:11.647Z,7.10
2022-12-11T17:17:39.524Z,7.33
2022-12-11T17:20:08.292Z,7.10
2022-12-11T17:22:36.478Z,8.20
2022-12-11T17:25:04.312Z,7.67
2022-12-11T17:27:33.341Z,8.00
2022-12-11T17:30:00.956Z,7.97
2022-12-11T17:32:28.558Z,8.47
2022-12-11T17:34:56.153Z,8.80
2022-12-11T17:37:23.759Z,7.37
2022-12-11T17:39:51.368Z,8.67
2022-12-11T17:42:18.943Z,7.50
2022-12-11T17:44:47.850Z,7.50
2022-12-11T17:47:15.443Z,7.80
2022-12-11T17:49:43.016Z,7.47
2022-12-11T17:52:10.626Z,8.37
2022-12-11T17:54:39.186Z,8.70
2022-12-11T17:57:07.470Z,8.40
2022-12-11T17:59:35.130Z,8.77
2022-12-11T18:02:04.137Z,6.87
2022-12-11T18:04:32.062Z,6.50
2022-12-11T18:06:59.712Z,7.30
2022-12-11T18:09:27.450Z,6.93
2022-12-11T18:11:55.043Z,6.50
2022-12-11T18:14:23.053Z,8.33
2022-12-11T18:16:52.141Z,8.60
2022-12-11T18:19:22.667Z,8.43
2022-12-11T18:21:50.431Z,8.27
2022-12-11T18:24:18.002Z,6.23
2022-12-11T18:26:45.608Z,8.60
2022-12-11T18:29:13.324Z,9.37
2022-12-11T18:31:42.917Z,8.70
2022-12-11T18:34:11.269Z,7.83
2022-12-11T18:36:41.289Z,8.10
2022-12-11T18:39:09.726Z,7.60
2022-12-11T18:41:37.498Z,7.53
2022-12-11T18:44:09.738Z,8.00
2022-12-11T18:46:39.291Z,7.70
2022-12-11T18:49:07.071Z,8.53
2022-12-11T18:51:34.841Z,8.70
2022-12-11T18:54:03.842Z,7.70
2022-12-11T18:56:31.447Z,7.73
2022-12-11T18:58:59.034Z,9.97
2022-12-11T19:01:28.806Z,8.70
2022-12-11T19:04:02.393Z,7.30
2022-12-11T19:06:33.141Z,9.27
2022-12-11T19:09:01.243Z,8.13
2022-12-11T19:11:31.752Z,9.07
2022-12-11T19:13:59.357Z,8.53
2022-12-11T19:16:29.717Z,8.70
2022-12-11T19:18:58.765Z,8.23
2022-12-11T19:21:26.386Z,10.83
2022-12-11T19:23:54.810Z,7.80
2022-12-11T19:26:23.613Z,7.57
2022-12-11T19:28:53.665Z,7.87
2022-12-11T19:31:23.493Z,7.77
2022-12-11T19:33:51.355Z,9.53
2022-12-11T19:36:20.918Z,7.80
2022-12-11T19:38:48.882Z,6.70
2022-12-11T19:41:18.668Z,8.83
2022-12-11T19:43:46.295Z,10.07
2022-12-11T19:46:15.862Z,10.97
2022-12-11T19:48:43.881Z,9.70
2022-12-11T19:51:14.265Z,8.90
2022-12-11T19:53:43.102Z,8.30
2022-12-11T19:56:11.315Z,11.47
2022-12-11T19:58:38.932Z,8.50
2022-12-11T20:01:07.369Z,9.97
2022-12-11T20:03:36.925Z,10.43
2022-12-11T20:06:06.698Z,7.47
2022-12-11T20:08:44.570Z,8.60
2022-12-11T20:11:17.955Z,10.27
2022-12-11T20:13:46.794Z,8.87
2022-12-11T20:16:14.829Z,9.23
2022-12-11T20:18:43.872Z,9.40
2022-12-11T20:21:14.833Z,10.80
2022-12-11T20:23:42.820Z,8.73
2022-12-11T20:26:12.333Z,8.30
2022-12-11T20:28:40.415Z,11.10
2022-12-11T20:31:13.543Z,9.90
2022-12-11T20:33:45.482Z,8.70
2022-12-11T20:36:15.108Z,10.17
2022-12-11T20:38:43.319Z,9.67
2022-12-11T20:41:13.114Z,11.73
2022-12-11T20:43:41.418Z,10.97
2022-12-11T20:46:10.259Z,10.33
2022-12-11T20:48:38.650Z,11.53
2022-12-11T20:51:09.651Z,11.00
2022-12-11T20:53:38.038Z,12.70
2022-12-11T20:56:10.456Z,13.07
2022-12-11T20:58:38.260Z,13.83
2022-12-11T21:01:06.099Z,11.23
2022-12-11T21:03:40.428Z,10.40
2022-12-11T21:06:18.699Z,9.67
2022-12-11T21:08:46.255Z,10.07
2022-12-11T21:11:13.925Z,9.43
2022-12-11T21:13:41.591Z,9.90
2022-12-11T21:16:10.811Z,12.47
2022-12-11T21:18:38.838Z,10.63
2022-12-11T21:21:06.830Z,9.60
2022-12-11T21:23:35.801Z,10.33
2022-12-11T21:26:04.248Z,9.43
2022-12-11T21:28:35.472Z,8.30
2022-12-11T21:31:04.684Z,8.87
2022-12-11T21:33:32.261Z,8.77
2022-12-11T21:36:01.102Z,9.73
2022-12-11T21:38:29.222Z,10.57
2022-12-11T21:40:58.292Z,11.07
2022-12-11T21:43:25.878Z,9.10
2022-12-11T21:46:01.948Z,10.43
2022-12-11T21:48:30.167Z,9.10
2022-12-11T21:51:06.289Z,10.60
2022-12-11T21:53:34.178Z,10.03
2022-12-11T21:56:06.002Z,10.73
2022-12-11T21:58:33.729Z,9.17
2022-12-11T22:01:01.352Z,10.53
2022-12-11T22:03:29.077Z,10.80
2022-12-11T22:05:57.469Z,10.53
2022-12-11T22:08:25.163Z,10.53
2022-12-11T22:10:52.721Z,10.53
2022-12-11T22:13:21.655Z,11.17
2022-12-11T22:15:49.219Z,9.43
2022-12-11T22:18:17.036Z,9.27
2022-12-11T22:20:44.772Z,12.47
2022-12-11T22:23:12.612Z,10.93
2022-12-11T22:25:40.727Z,12.70
2022-12-11T22:28:08.294Z,10.63
2022-12-11T22:30:38.480Z,13.73
2022-12-11T22:33:06.421Z,10.83
2022-12-11T22:35:34.137Z,9.87
2022-12-11T22:38:01.796Z,9.50
2022-12-11T22:40:29.583Z,11.00
2022-12-11T22:42:57.210Z,11.37
2022-12-11T22:45:24.836Z,10.73
2022-12-11T22:47:53.756Z,11.60
2022-12-11T22:50:21.798Z,10.60
2022-12-11T22:52:49.694Z,11.33
2022-12-11T22:55:17.325Z,11.00
2022-12-11T22:57:44.880Z,11.07
2022-12-11T23:00:14.292Z,10.77
2022-12-11T23:02:42.850Z,11.27
2022-12-11T23:05:12.928Z,10.90
2022-12-11T23:07:41.080Z,9.67
2022-12-11T23:10:11.014Z,10.10
2022-12-11T23:12:38.698Z,10.10
2022-12-11T23:15:07.955Z,10.17
2022-12-11T23:17:35.993Z,10.73
2022-12-11T23:20:05.684Z,10.47
2022-12-11T23:22:35.415Z,11.73
2022-12-11T23:25:03.107Z,10.37
2022-12-11T23:27:30.689Z,11.03
2022-12-11T23:29:58.326Z,9.57
2022-12-11T23:32:25.921Z,11.03
2022-12-11T23:34:53.470Z,10.63
2022-12-11T23:37:21.679Z,11.20
2022-12-11T23:39:50.881Z,13.33
2022-12-11T23:42:18.452Z,11.43
2022-12-11T23:44:46.004Z,14.17
2022-12-11T23:47:13.640Z,13.73
2022-12-11T23:49:41.236Z,13.47
2022-12-11T23:52:09.146Z,11.60
2022-12-11T23:54:36.764Z,11.93
2022-12-11T23:57:06.229Z,12.23
2022-12-11T23:59:33.797Z,11.83
